Findlay Airport
KFDY : rendu visible

Aérodrome :











RETROUVEZ-NOUS SUR...

 
LOGIN :

S'inscrire | Disclaimer

   EN    FR    IT 

 









Légende :    VFR   VFR Marginal   IFR   IFR Intensif   IFR Très Intensif
Visi : 
Plafond : 
>= 8 km
>= 3000ft
5 à 8 km
1000 à 3000 ft
1500m à 5 km
500 à 1000 ft
800 à 1500m
200 à 500 ft
< 800m
< 200 ft
Symboles :   Orages  Brouillard  Fortes neiges  Fortes précipitations  Vent > 20 kt






- Altitude de l'aérodrome : 813 ft


KFDY - Findlay

DERNIER METAR :
  • 162253Z AUTO 05008KT 10SM CLR 01/M05 A3030 RMK AO2 SLP264 T00111050

METARs EXPIRÉS :
  • 162153Z AUTO 06012KT 10SM CLR 02/M06 A3030 RMK AO2 SLP265 T00221061
  • 162053Z AUTO 05014KT 10SM CLR 03/M05 A3031 RMK AO2 SLP268 T00331050 55017

TAF KFDY
Valide du 17 à 00h jusqu'au 18 à 00h UTC


162327Z 1700/1724 05008KT P6SM FEW250
FM172000 20004KT P6SM SCT150 BKN250



MET'MAP, la Météo Aéronautique d'un coup d'oeil ! - Copyright ORBIFLY Décembre 2007 - Disclaimer

ORBIFLY MET'MAP TEAM :

Programmation & Développement : Alexandra Zaïnal
Conception & Développement : Baudouin d'Aumeries
Co-Programmation & Développement : Marc-Olivier Méhu
Soutien technique & logistique : Manuel Goepfert

Contact : metmap@orbifly.com




SOURCES & CREDITS :

   NOAA       Earth
Advisory